KP28

Medicine Lodge Airport

Medicine Lodge, Kansas, USA
METAR KP28 150056Z AUTO 00000KT 23/22 A2985 RMK AO1 SLP096 T02330222
Observed Flight Rules
Aug-15 @ 00:56 UTC (8 minutes ago)
Temperatures Readings
Current 23°C / 73°F
Dewpoint 22°C / 72°F
Humidity 94%
Altimeter 29.85" Hg
Pressure 1009.6 hPa
Elevation 469
METAR KP28 150056Z AUTO 00000KT 23/22 A2985 RMK AO1 SLP096 T02330222
Observed Flight Rules
Aug-15 @ 00:56 UTC
(8 minutes ago)
Temperature Dewpoint
23°C / 73°F 22°C / 72°F
Humidity Altimeter Pressure
94% 29.85" Hg 1009.6 hPa